createdAt,value
2023-02-13T00:00:00.122Z,8.72
2023-02-13T00:02:26.808Z,8.78
2023-02-13T00:04:53.305Z,8.72
2023-02-13T00:07:19.831Z,8.73
2023-02-13T00:09:46.288Z,8.65
2023-02-13T00:12:12.757Z,8.66
2023-02-13T00:14:40.260Z,8.72
2023-02-13T00:17:07.474Z,8.65
2023-02-13T00:19:34.112Z,8.74
2023-02-13T00:22:00.638Z,8.73
2023-02-13T00:24:27.210Z,8.69
2023-02-13T00:26:53.660Z,8.64
2023-02-13T00:29:20.067Z,8.72
2023-02-13T00:31:46.581Z,8.69
2023-02-13T00:34:13.123Z,8.72
2023-02-13T00:36:39.574Z,8.72
2023-02-13T00:39:06.108Z,8.72
2023-02-13T00:41:32.660Z,8.66
2023-02-13T00:43:59.229Z,8.65
2023-02-13T00:46:25.703Z,8.66
2023-02-13T00:48:52.203Z,8.60
2023-02-13T00:51:18.765Z,8.57
2023-02-13T00:53:45.223Z,8.52
2023-02-13T00:56:11.682Z,8.57
2023-02-13T00:58:38.987Z,8.56
2023-02-13T01:01:05.649Z,8.60
2023-02-13T01:03:32.152Z,8.63
2023-02-13T01:05:58.754Z,8.61
2023-02-13T01:08:25.401Z,8.62
2023-02-13T01:10:51.859Z,8.56
2023-02-13T01:13:18.793Z,8.57
2023-02-13T01:15:46.392Z,8.50
2023-02-13T01:18:14.773Z,8.47
2023-02-13T01:20:42.351Z,8.51
2023-02-13T01:23:08.986Z,8.53
2023-02-13T01:25:35.680Z,8.48
2023-02-13T01:28:02.188Z,8.48
2023-02-13T01:30:28.664Z,8.51
2023-02-13T01:32:55.153Z,8.50
2023-02-13T01:35:21.613Z,8.46
2023-02-13T01:37:48.106Z,8.45
2023-02-13T01:40:15.033Z,8.48
2023-02-13T01:42:41.453Z,8.53
2023-02-13T01:45:29.140Z,8.46
2023-02-13T01:48:13.704Z,8.45
2023-02-13T01:50:48.199Z,8.51
2023-02-13T01:53:23.036Z,8.52
2023-02-13T01:55:58.573Z,8.51
2023-02-13T01:58:29.654Z,8.54
2023-02-13T02:00:57.371Z,8.47
2023-02-13T02:03:35.489Z,8.43
2023-02-13T02:06:02.535Z,8.44
2023-02-13T02:08:30.889Z,8.52
2023-02-13T02:11:02.596Z,8.45
2023-02-13T02:13:29.117Z,8.47
2023-02-13T02:15:55.669Z,8.46
2023-02-13T02:18:24.713Z,8.43
2023-02-13T02:21:09.430Z,8.38
2023-02-13T02:23:54.269Z,8.45
2023-02-13T02:26:42.582Z,8.45
2023-02-13T02:29:33.755Z,8.37
2023-02-13T02:32:18.212Z,8.36
2023-02-13T02:35:06.512Z,8.47
2023-02-13T02:37:43.822Z,8.41
2023-02-13T02:40:32.134Z,8.41
2023-02-13T02:43:01.409Z,8.38
2023-02-13T02:45:47.473Z,8.43
2023-02-13T02:49:08.081Z,8.50
2023-02-13T02:52:12.803Z,8.42
2023-02-13T02:55:06.974Z,8.39
2023-02-13T02:57:59.163Z,8.39
2023-02-13T03:00:46.594Z,8.33
2023-02-13T03:03:42.040Z,8.32
2023-02-13T03:06:32.253Z,8.38
2023-02-13T03:09:20.875Z,8.37
2023-02-13T03:12:31.418Z,8.31
2023-02-13T03:14:58.026Z,8.28
2023-02-13T03:17:43.102Z,8.29
2023-02-13T03:20:58.800Z,8.36
2023-02-13T03:23:49.571Z,8.28
2023-02-13T03:26:33.274Z,8.28
2023-02-13T03:29:50.803Z,8.24
2023-02-13T03:32:23.316Z,8.28
2023-02-13T03:35:21.106Z,8.30
2023-02-13T03:37:54.993Z,8.20
2023-02-13T03:41:03.004Z,8.20
2023-02-13T03:43:37.273Z,8.22
2023-02-13T03:46:04.340Z,8.26
2023-02-13T03:48:56.607Z,8.23
2023-02-13T03:52:02.657Z,8.24
2023-02-13T03:55:03.080Z,8.19
2023-02-13T03:57:52.216Z,8.23
2023-02-13T04:00:21.131Z,8.20
2023-02-13T04:02:54.953Z,8.16
2023-02-13T04:05:26.648Z,8.22
2023-02-13T04:07:53.956Z,8.19
2023-02-13T04:10:23.741Z,8.15
2023-02-13T04:13:12.135Z,8.15
2023-02-13T04:15:52.127Z,8.11
2023-02-13T04:18:28.168Z,8.10
2023-02-13T04:20:54.695Z,8.12
2023-02-13T04:23:21.344Z,8.18
2023-02-13T04:25:52.264Z,8.15
2023-02-13T04:28:18.902Z,8.18
2023-02-13T04:30:45.495Z,8.19
2023-02-13T04:33:12.012Z,8.20
2023-02-13T04:35:38.580Z,8.18
2023-02-13T04:38:05.223Z,8.17
2023-02-13T04:40:31.753Z,8.24
2023-02-13T04:42:58.448Z,8.24
2023-02-13T04:45:25.027Z,8.18
2023-02-13T04:47:53.316Z,8.23
2023-02-13T04:50:20.560Z,8.17
2023-02-13T04:52:47.453Z,8.16
2023-02-13T04:55:14.257Z,8.20
2023-02-13T04:57:40.702Z,8.24
2023-02-13T05:00:07.975Z,8.20
2023-02-13T05:02:34.442Z,8.25
2023-02-13T05:05:00.894Z,8.21
2023-02-13T05:07:27.463Z,8.25
2023-02-13T05:09:53.967Z,8.37
2023-02-13T05:12:20.428Z,8.38
2023-02-13T05:14:47.066Z,8.40
2023-02-13T05:17:13.524Z,8.38
2023-02-13T05:19:39.983Z,8.39
2023-02-13T05:22:25.069Z,8.38
2023-02-13T05:24:51.516Z,8.46
2023-02-13T05:27:17.971Z,8.43
2023-02-13T05:29:44.401Z,8.45
2023-02-13T05:32:10.919Z,8.49
2023-02-13T05:34:37.365Z,8.55
2023-02-13T05:37:03.924Z,8.49
2023-02-13T05:39:31.566Z,8.48
2023-02-13T05:41:58.068Z,8.47
2023-02-13T05:44:24.577Z,8.51
2023-02-13T05:46:53.158Z,8.56
2023-02-13T05:49:19.679Z,8.54
2023-02-13T05:51:46.965Z,8.52
2023-02-13T05:54:13.681Z,8.53
2023-02-13T05:56:40.322Z,8.55
2023-02-13T05:59:08.012Z,8.56
2023-02-13T06:01:34.469Z,8.55
2023-02-13T06:04:03.767Z,8.61
2023-02-13T06:06:30.848Z,8.67
2023-02-13T06:08:57.379Z,8.70
2023-02-13T06:11:24.099Z,8.73
2023-02-13T06:13:50.662Z,8.76
2023-02-13T06:16:17.156Z,8.77
2023-02-13T06:18:43.787Z,8.82
2023-02-13T06:21:10.381Z,8.86
2023-02-13T06:23:36.835Z,8.86
2023-02-13T06:26:08.245Z,8.88
2023-02-13T06:28:35.388Z,8.78
2023-02-13T06:31:02.313Z,8.77
2023-02-13T06:33:29.061Z,8.80
2023-02-13T06:35:55.572Z,8.77
2023-02-13T06:38:22.318Z,8.71
2023-02-13T06:40:49.857Z,8.72
2023-02-13T06:43:17.711Z,8.68
2023-02-13T06:45:44.564Z,8.66
2023-02-13T06:48:11.056Z,8.60
2023-02-13T06:50:37.563Z,8.58
2023-02-13T06:53:04.087Z,8.52
2023-02-13T06:55:30.553Z,8.42
2023-02-13T06:57:57.112Z,8.43
2023-02-13T07:00:26.136Z,8.46
2023-02-13T07:02:53.428Z,8.43
2023-02-13T07:05:20.609Z,8.40
2023-02-13T07:07:47.181Z,8.33
2023-02-13T07:10:14.290Z,8.30
2023-02-13T07:12:41.141Z,8.32
2023-02-13T07:15:08.321Z,8.35
2023-02-13T07:17:35.090Z,8.31
2023-02-13T07:20:01.655Z,8.26
2023-02-13T07:22:28.204Z,8.29
2023-02-13T07:24:54.718Z,8.32
2023-02-13T07:27:21.200Z,8.22
2023-02-13T07:29:47.690Z,8.10
2023-02-13T07:32:14.154Z,8.05
2023-02-13T07:34:52.236Z,8.08
2023-02-13T07:37:28.574Z,8.15
2023-02-13T07:39:55.170Z,8.16
2023-02-13T07:42:21.695Z,8.15
2023-02-13T07:44:48.186Z,8.20
2023-02-13T07:47:14.720Z,8.27
2023-02-13T07:49:41.338Z,8.28
2023-02-13T07:52:07.847Z,8.28
2023-02-13T07:54:34.340Z,8.34
2023-02-13T07:57:00.869Z,8.41
2023-02-13T07:59:27.374Z,8.49
2023-02-13T08:01:53.939Z,8.56
2023-02-13T08:04:20.472Z,8.67
2023-02-13T08:06:46.969Z,8.71
2023-02-13T08:09:39.528Z,8.77
2023-02-13T08:12:09.151Z,8.86
2023-02-13T08:14:35.653Z,8.90
2023-02-13T08:17:02.384Z,8.93
2023-02-13T08:19:28.879Z,8.98
2023-02-13T08:21:55.676Z,9.04
2023-02-13T08:24:22.262Z,9.06
2023-02-13T08:26:48.966Z,9.06
2023-02-13T08:29:15.402Z,9.13
2023-02-13T08:31:42.102Z,9.15
2023-02-13T08:34:08.726Z,9.19
2023-02-13T08:36:35.227Z,9.18
2023-02-13T08:39:01.717Z,9.21
2023-02-13T08:41:28.241Z,9.26
2023-02-13T08:43:55.312Z,9.25
2023-02-13T08:46:22.226Z,9.30
2023-02-13T08:48:48.754Z,9.34
2023-02-13T08:51:15.303Z,9.39
2023-02-13T08:53:42.485Z,9.42
2023-02-13T08:56:09.567Z,9.44
2023-02-13T08:58:36.034Z,9.47
2023-02-13T09:01:07.560Z,9.51
2023-02-13T09:03:34.798Z,9.48
2023-02-13T09:06:02.986Z,9.48
2023-02-13T09:08:29.702Z,9.45
2023-02-13T09:11:01.325Z,9.48
2023-02-13T09:13:33.596Z,9.56
2023-02-13T09:16:01.483Z,9.60
2023-02-13T09:18:28.533Z,9.67
2023-02-13T09:20:59.816Z,9.64
2023-02-13T09:23:26.803Z,9.72
2023-02-13T09:25:53.517Z,9.77
2023-02-13T09:28:20.025Z,9.77
2023-02-13T09:30:46.711Z,9.86
2023-02-13T09:33:13.250Z,9.90
2023-02-13T09:35:42.170Z,9.94
2023-02-13T09:38:08.765Z,10.00
2023-02-13T09:40:39.446Z,10.00
2023-02-13T09:43:22.643Z,10.04
2023-02-13T09:45:51.974Z,10.02
2023-02-13T09:48:28.729Z,9.95
2023-02-13T09:50:56.162Z,10.01
2023-02-13T09:53:24.462Z,10.12
2023-02-13T09:56:22.476Z,10.19
2023-02-13T09:59:30.418Z,10.28
2023-02-13T10:02:01.022Z,10.41
2023-02-13T10:04:51.050Z,10.46
2023-02-13T10:07:20.351Z,10.57
2023-02-13T10:10:02.250Z,10.64
2023-02-13T10:12:48.924Z,10.50
2023-02-13T10:15:24.603Z,10.63
2023-02-13T10:17:59.240Z,10.77
2023-02-13T10:20:42.170Z,10.76
2023-02-13T10:23:32.962Z,10.93
2023-02-13T10:26:01.271Z,11.02
2023-02-13T10:29:13.084Z,11.04
2023-02-13T10:31:41.457Z,10.99
2023-02-13T10:34:14.361Z,10.94
2023-02-13T10:36:45.612Z,10.90
2023-02-13T10:39:31.526Z,10.96
2023-02-13T10:42:20.151Z,11.18
2023-02-13T10:45:02.122Z,11.21
2023-02-13T10:47:40.777Z,11.18
2023-02-13T10:50:30.169Z,11.23
2023-02-13T10:53:19.468Z,11.33
2023-02-13T10:56:04.772Z,11.29
2023-02-13T10:58:40.276Z,11.37
2023-02-13T11:01:14.999Z,11.46
2023-02-13T11:03:41.504Z,11.42
2023-02-13T11:06:14.507Z,11.48
2023-02-13T11:08:47.475Z,11.49
2023-02-13T11:11:33.159Z,11.60
2023-02-13T11:14:26.730Z,11.66
2023-02-13T11:16:57.964Z,11.74
2023-02-13T11:19:38.148Z,11.76
2023-02-13T11:22:05.899Z,11.87
2023-02-13T11:24:32.840Z,11.89
2023-02-13T11:27:12.896Z,11.97
2023-02-13T11:30:06.824Z,12.10
2023-02-13T11:32:35.048Z,12.07
2023-02-13T11:35:28.309Z,12.10
2023-02-13T11:38:16.399Z,12.23
2023-02-13T11:40:49.619Z,12.33
2023-02-13T11:43:48.398Z,12.35
2023-02-13T11:46:21.963Z,12.32
2023-02-13T11:49:04.100Z,12.24
2023-02-13T11:51:45.548Z,12.37
2023-02-13T11:54:27.649Z,12.53
2023-02-13T11:57:06.154Z,12.59
2023-02-13T11:59:42.072Z,12.65
2023-02-13T12:02:28.349Z,12.76
2023-02-13T12:05:16.333Z,12.96
2023-02-13T12:07:43.899Z,13.00
2023-02-13T12:10:27.158Z,12.87
2023-02-13T12:12:58.296Z,12.90
2023-02-13T12:15:33.995Z,12.92
2023-02-13T12:18:27.911Z,13.04
2023-02-13T12:21:16.208Z,13.11
2023-02-13T12:24:02.927Z,13.04
2023-02-13T12:26:47.692Z,13.12
2023-02-13T12:29:17.039Z,13.38
2023-02-13T12:32:01.737Z,13.35
2023-02-13T12:35:05.736Z,13.37
2023-02-13T12:37:50.466Z,13.55
2023-02-13T12:40:26.952Z,13.57
2023-02-13T12:42:56.311Z,13.62
2023-02-13T12:45:40.794Z,13.38
2023-02-13T12:48:21.471Z,13.64
2023-02-13T12:51:11.233Z,13.59
2023-02-13T12:54:07.695Z,13.65
2023-02-13T12:56:52.783Z,13.81
2023-02-13T12:59:29.840Z,13.78
2023-02-13T13:02:11.569Z,13.97
2023-02-13T13:05:06.168Z,14.01
2023-02-13T13:07:44.679Z,14.12
2023-02-13T13:10:17.081Z,14.10
2023-02-13T13:13:04.966Z,14.15
2023-02-13T13:15:52.655Z,14.14
2023-02-13T13:18:39.275Z,14.16
2023-02-13T13:21:19.251Z,14.26
2023-02-13T13:24:03.224Z,14.25
2023-02-13T13:26:42.975Z,14.26
2023-02-13T13:29:17.256Z,14.32
2023-02-13T13:31:51.256Z,14.46
2023-02-13T13:34:24.588Z,14.52
2023-02-13T13:37:00.424Z,14.57
2023-02-13T13:39:29.590Z,14.59
2023-02-13T13:42:09.802Z,14.68
2023-02-13T13:44:54.365Z,14.60
2023-02-13T13:47:23.751Z,14.73
2023-02-13T13:49:54.365Z,14.99
2023-02-13T13:52:29.215Z,15.19
2023-02-13T13:54:58.514Z,15.31
2023-02-13T13:57:27.399Z,15.43
2023-02-13T14:00:07.763Z,15.39
2023-02-13T14:02:44.785Z,15.39
2023-02-13T14:05:19.119Z,15.57
2023-02-13T14:07:51.462Z,15.62
2023-02-13T14:10:21.065Z,15.64
2023-02-13T14:12:56.715Z,15.82
2023-02-13T14:15:38.651Z,15.97
2023-02-13T14:18:14.002Z,16.16
2023-02-13T14:20:44.196Z,16.64
2023-02-13T14:23:31.825Z,16.71
2023-02-13T14:26:17.627Z,16.79
2023-02-13T14:28:50.331Z,16.68
2023-02-13T14:31:27.504Z,16.83
2023-02-13T14:34:09.327Z,17.31
2023-02-13T14:36:42.243Z,17.66
2023-02-13T14:39:19.692Z,17.98
2023-02-13T14:41:55.182Z,17.93
2023-02-13T14:44:41.279Z,18.12
2023-02-13T14:47:26.367Z,18.70
2023-02-13T14:49:54.035Z,19.04
2023-02-13T14:52:27.467Z,19.45
2023-02-13T14:55:02.953Z,19.46
2023-02-13T14:57:41.790Z,19.60
2023-02-13T15:00:48.742Z,19.85
2023-02-13T15:03:44.043Z,20.13
2023-02-13T15:06:27.564Z,20.22
2023-02-13T15:08:59.383Z,20.14
2023-02-13T15:11:42.932Z,19.58
2023-02-13T15:14:23.623Z,19.32
2023-02-13T15:16:58.357Z,19.09
2023-02-13T15:19:26.045Z,18.68
2023-02-13T15:21:59.416Z,18.54
2023-02-13T15:24:26.544Z,18.31
2023-02-13T15:27:01.623Z,18.46
2023-02-13T15:29:38.038Z,18.75
2023-02-13T15:32:22.753Z,19.18
2023-02-13T15:34:49.362Z,18.87
2023-02-13T15:37:24.532Z,18.13
2023-02-13T15:39:51.124Z,17.48
2023-02-13T15:42:17.594Z,17.09
2023-02-13T15:44:47.751Z,16.91
2023-02-13T15:47:28.103Z,16.75
2023-02-13T15:49:55.030Z,16.58
2023-02-13T15:52:34.259Z,16.45
2023-02-13T15:55:00.867Z,16.33
2023-02-13T15:57:28.231Z,16.22
2023-02-13T15:59:56.375Z,16.29
2023-02-13T16:02:28.596Z,16.11
2023-02-13T16:04:55.846Z,15.93
2023-02-13T16:07:22.707Z,15.88
2023-02-13T16:09:49.215Z,15.72
2023-02-13T16:12:25.735Z,15.45
2023-02-13T16:14:59.901Z,15.41
2023-02-13T16:17:36.955Z,15.26
2023-02-13T16:20:17.209Z,15.20
2023-02-13T16:22:48.873Z,14.99
2023-02-13T16:25:49.466Z,14.76
2023-02-13T16:28:21.199Z,14.57
2023-02-13T16:30:59.437Z,14.50
2023-02-13T16:33:31.926Z,14.54
2023-02-13T16:36:01.033Z,14.54
2023-02-13T16:38:27.605Z,14.53
2023-02-13T16:40:55.910Z,14.30
2023-02-13T16:43:34.766Z,14.06
2023-02-13T16:46:12.074Z,13.93
2023-02-13T16:48:38.962Z,13.68
2023-02-13T16:51:05.508Z,13.46
2023-02-13T16:53:34.206Z,13.31
2023-02-13T16:56:10.633Z,13.22
2023-02-13T16:58:37.218Z,13.09
2023-02-13T17:01:05.350Z,12.96
2023-02-13T17:03:33.014Z,12.86
2023-02-13T17:06:03.408Z,12.72
2023-02-13T17:08:31.490Z,12.69
2023-02-13T17:11:06.745Z,12.57
2023-02-13T17:13:35.040Z,12.53
2023-02-13T17:16:01.739Z,12.48
2023-02-13T17:18:28.377Z,12.42
2023-02-13T17:20:55.238Z,12.22
2023-02-13T17:23:24.617Z,12.23
2023-02-13T17:25:53.752Z,12.10
2023-02-13T17:28:25.596Z,11.99
2023-02-13T17:30:56.299Z,11.79
2023-02-13T17:33:26.282Z,11.63
2023-02-13T17:35:53.747Z,11.53
2023-02-13T17:38:20.939Z,11.50
2023-02-13T17:40:47.632Z,11.58
2023-02-13T17:43:17.153Z,11.60
2023-02-13T17:45:43.777Z,11.52
2023-02-13T17:48:10.315Z,11.48
2023-02-13T17:50:37.697Z,11.32
2023-02-13T17:53:16.384Z,11.26
2023-02-13T17:55:42.871Z,11.15
2023-02-13T17:58:09.347Z,11.04
2023-02-13T18:00:35.914Z,10.98
2023-02-13T18:03:03.308Z,10.94
2023-02-13T18:05:31.180Z,10.86
2023-02-13T18:07:57.836Z,10.77
2023-02-13T18:10:27.465Z,10.78
2023-02-13T18:12:55.445Z,10.84
2023-02-13T18:15:22.039Z,10.66
2023-02-13T18:17:48.645Z,10.41
2023-02-13T18:20:18.750Z,10.20
2023-02-13T18:22:45.311Z,10.09
2023-02-13T18:25:12.785Z,10.01
2023-02-13T18:27:39.433Z,9.83
2023-02-13T18:30:06.849Z,9.80
2023-02-13T18:32:33.616Z,9.83
2023-02-13T18:35:00.475Z,9.88
2023-02-13T18:37:29.484Z,9.84
2023-02-13T18:39:56.793Z,9.74
2023-02-13T18:42:24.070Z,9.69
2023-02-13T18:44:50.591Z,9.63
2023-02-13T18:47:17.985Z,9.63
2023-02-13T18:49:46.417Z,9.60
2023-02-13T18:52:12.990Z,9.54
2023-02-13T18:54:39.620Z,9.51
2023-02-13T18:57:06.529Z,9.60
2023-02-13T18:59:33.089Z,9.51
2023-02-13T19:01:59.591Z,9.41
2023-02-13T19:04:26.127Z,9.26
2023-02-13T19:06:52.538Z,9.21
2023-02-13T19:09:19.217Z,9.20
2023-02-13T19:11:47.820Z,9.19
2023-02-13T19:14:15.004Z,9.06
2023-02-13T19:16:41.599Z,9.08
2023-02-13T19:19:09.148Z,8.99
2023-02-13T19:21:37.605Z,9.02
2023-02-13T19:24:07.871Z,9.06
2023-02-13T19:26:35.021Z,8.90
2023-02-13T19:29:01.496Z,8.74
2023-02-13T19:31:30.672Z,8.69
2023-02-13T19:33:57.503Z,8.65
2023-02-13T19:36:25.826Z,8.55
2023-02-13T19:38:58.429Z,8.46
2023-02-13T19:41:25.527Z,8.46
2023-02-13T19:43:53.644Z,8.45
2023-02-13T19:46:26.055Z,8.31
2023-02-13T19:48:53.136Z,8.17
2023-02-13T19:51:22.388Z,8.16
2023-02-13T19:53:49.040Z,8.14
2023-02-13T19:56:15.835Z,8.01
2023-02-13T19:58:43.101Z,8.12
2023-02-13T20:01:19.096Z,8.26
2023-02-13T20:03:45.642Z,8.24
2023-02-13T20:06:15.505Z,8.18
2023-02-13T20:08:43.174Z,8.13
2023-02-13T20:11:11.108Z,8.12
2023-02-13T20:13:37.718Z,8.03
2023-02-13T20:16:05.821Z,7.83
2023-02-13T20:18:33.742Z,7.76
2023-02-13T20:21:00.716Z,7.79
2023-02-13T20:23:27.455Z,7.82
2023-02-13T20:25:53.972Z,7.97
2023-02-13T20:28:20.466Z,7.92
2023-02-13T20:30:47.014Z,7.91
2023-02-13T20:33:13.526Z,8.04
2023-02-13T20:35:40.074Z,8.03
2023-02-13T20:38:06.512Z,7.98
2023-02-13T20:40:32.977Z,7.85
2023-02-13T20:42:59.405Z,7.64
2023-02-13T20:45:25.956Z,7.64
2023-02-13T20:47:52.432Z,7.72
2023-02-13T20:50:18.961Z,7.78
2023-02-13T20:52:45.601Z,7.70
2023-02-13T20:55:12.111Z,7.73
2023-02-13T20:57:38.631Z,7.74
2023-02-13T21:00:06.588Z,7.74
2023-02-13T21:02:33.141Z,7.69
2023-02-13T21:04:59.660Z,7.59
2023-02-13T21:07:26.286Z,7.50
2023-02-13T21:09:52.762Z,7.56
2023-02-13T21:12:19.263Z,7.59
2023-02-13T21:14:45.768Z,7.55
2023-02-13T21:17:12.204Z,7.51
2023-02-13T21:19:38.755Z,7.38
2023-02-13T21:22:11.995Z,7.25
2023-02-13T21:24:40.550Z,7.37
2023-02-13T21:27:07.769Z,7.44
2023-02-13T21:29:34.331Z,7.45
2023-02-13T21:32:00.935Z,7.45
2023-02-13T21:34:27.528Z,7.44
2023-02-13T21:36:53.989Z,7.48
2023-02-13T21:39:20.459Z,7.40
2023-02-13T21:41:47.658Z,7.33
2023-02-13T21:44:15.857Z,7.23
2023-02-13T21:46:43.773Z,7.26
2023-02-13T21:49:12.632Z,7.30
2023-02-13T21:51:39.162Z,7.17
2023-02-13T21:54:05.949Z,7.16
2023-02-13T21:56:34.930Z,7.05
2023-02-13T21:59:01.777Z,6.95
2023-02-13T22:01:31.219Z,6.92
2023-02-13T22:04:01.336Z,6.85
2023-02-13T22:06:30.317Z,6.76
2023-02-13T22:09:02.539Z,6.77
2023-02-13T22:11:29.542Z,6.75
2023-02-13T22:14:00.072Z,6.73
2023-02-13T22:16:26.731Z,6.70
2023-02-13T22:18:53.321Z,6.58
2023-02-13T22:21:22.651Z,6.52
2023-02-13T22:23:50.714Z,6.47
2023-02-13T22:26:23.131Z,6.43
2023-02-13T22:28:50.386Z,6.51
2023-02-13T22:31:17.537Z,6.60
2023-02-13T22:33:47.703Z,6.51
2023-02-13T22:36:18.091Z,6.55
2023-02-13T22:38:44.754Z,6.50
2023-02-13T22:41:23.580Z,6.41
2023-02-13T22:43:51.163Z,6.36
2023-02-13T22:46:24.119Z,6.42
2023-02-13T22:48:54.168Z,6.30
2023-02-13T22:51:24.117Z,6.14
2023-02-13T22:53:56.519Z,6.05
2023-02-13T22:56:24.848Z,6.18
2023-02-13T22:58:51.494Z,6.10
2023-02-13T23:01:20.633Z,6.09
2023-02-13T23:03:47.535Z,6.01
2023-02-13T23:06:15.113Z,5.92
2023-02-13T23:08:42.595Z,5.96
2023-02-13T23:11:30.677Z,5.71
2023-02-13T23:13:57.186Z,5.57
2023-02-13T23:16:23.952Z,5.52
2023-02-13T23:18:54.527Z,5.46
2023-02-13T23:21:21.941Z,5.32
2023-02-13T23:23:48.922Z,5.27
2023-02-13T23:26:16.000Z,5.36
2023-02-13T23:28:43.254Z,5.50
2023-02-13T23:31:09.923Z,5.50
2023-02-13T23:33:36.612Z,5.44
2023-02-13T23:36:03.225Z,5.55
2023-02-13T23:38:29.705Z,5.69
2023-02-13T23:40:56.345Z,5.74
2023-02-13T23:43:22.962Z,5.75
2023-02-13T23:45:49.960Z,5.57
2023-02-13T23:48:16.607Z,5.37
2023-02-13T23:50:43.112Z,5.41
2023-02-13T23:53:09.857Z,5.22
2023-02-13T23:55:36.359Z,5.16
2023-02-13T23:58:02.835Z,5.18
